createdAt,value
2023-01-07T00:00:21.267Z,101787.47
2023-01-07T00:05:20.221Z,101784.88
2023-01-07T00:10:18.960Z,101789.22
2023-01-07T00:15:19.123Z,101787.47
2023-01-07T00:20:18.129Z,101793.59
2023-01-07T00:25:17.091Z,101802.31
2023-01-07T00:30:15.951Z,101808.47
2023-01-07T00:35:23.420Z,101800.59
2023-01-07T00:40:23.159Z,101798.88
2023-01-07T00:45:22.175Z,101809.38
2023-01-07T00:50:22.996Z,101812.84
2023-01-07T00:55:22.089Z,101809.38
2023-01-07T01:00:22.863Z,101795.41
2023-01-07T01:05:23.796Z,101780.69
2023-01-07T01:10:22.569Z,101788.28
2023-01-07T01:15:21.775Z,101783.03
2023-01-07T01:20:22.538Z,101788.22
2023-01-07T01:25:21.445Z,101789.09
2023-01-07T01:30:20.930Z,101786.50
2023-01-07T01:35:19.888Z,101788.31
2023-01-07T01:40:20.686Z,101782.25
2023-01-07T01:45:20.789Z,101788.53
2023-01-07T01:50:25.269Z,101770.31
2023-01-07T01:55:30.553Z,101773.88
2023-01-07T02:00:30.893Z,101774.16
2023-01-07T02:05:34.212Z,101775.19
2023-01-07T02:10:35.293Z,101772.03
2023-01-07T02:15:53.320Z,101779.06
2023-01-07T02:21:02.272Z,101780.91
2023-01-07T02:26:42.833Z,101777.47
2023-01-07T02:32:11.658Z,101790.75
2023-01-07T02:37:16.029Z,101795.97
2023-01-07T02:42:24.715Z,101793.31
2023-01-07T02:47:29.628Z,101780.28
2023-01-07T02:52:35.248Z,101781.25
2023-01-07T02:57:56.037Z,101796.19
2023-01-07T03:03:15.370Z,101804.16
2023-01-07T03:08:36.014Z,101801.59
2023-01-07T03:13:40.280Z,101793.97
2023-01-07T03:18:47.342Z,101791.56
2023-01-07T03:23:51.901Z,101804.69
2023-01-07T03:28:52.462Z,101813.59
2023-01-07T03:33:56.955Z,101806.75
2023-01-07T03:38:57.582Z,101795.56
2023-01-07T03:43:57.589Z,101797.50
2023-01-07T03:48:58.104Z,101801.00
2023-01-07T03:53:57.185Z,101802.69
2023-01-07T03:58:56.416Z,101805.31
2023-01-07T04:03:55.485Z,101809.69
2023-01-07T04:08:56.268Z,101808.03
2023-01-07T04:13:55.196Z,101787.25
2023-01-07T04:18:54.188Z,101792.53
2023-01-07T04:23:53.181Z,101798.66
2023-01-07T04:28:53.681Z,101801.34
2023-01-07T04:33:52.583Z,101791.81
2023-01-07T04:38:51.998Z,101794.50
2023-01-07T04:43:51.284Z,101802.47
2023-01-07T04:48:51.533Z,101799.06
2023-01-07T04:53:50.535Z,101802.59
2023-01-07T04:58:49.580Z,101815.66
2023-01-07T05:03:51.080Z,101819.16
2023-01-07T05:08:49.980Z,101821.81
2023-01-07T05:13:50.933Z,101823.59
2023-01-07T05:18:52.151Z,101832.28
2023-01-07T05:23:52.094Z,101835.88
2023-01-07T05:28:51.367Z,101836.78
2023-01-07T05:33:51.627Z,101844.78
2023-01-07T05:38:50.614Z,101841.38
2023-01-07T05:43:49.601Z,101838.91
2023-01-07T05:48:48.503Z,101849.38
2023-01-07T05:53:48.699Z,101841.72
2023-01-07T05:58:47.505Z,101858.31
2023-01-07T06:03:46.551Z,101849.75
2023-01-07T06:08:45.526Z,101859.38
2023-01-07T06:13:45.703Z,101852.50
2023-01-07T06:18:44.520Z,101870.03
2023-01-07T06:23:43.612Z,101862.19
2023-01-07T06:28:42.436Z,101844.81
2023-01-07T06:33:42.547Z,101844.81
2023-01-07T06:38:41.785Z,101837.06
2023-01-07T06:43:40.589Z,101840.81
2023-01-07T06:48:39.455Z,101862.44
2023-01-07T06:53:39.611Z,101860.69
2023-01-07T06:58:38.410Z,101854.59
2023-01-07T07:03:39.225Z,101855.44
2023-01-07T07:08:39.482Z,101854.56
2023-01-07T07:13:38.232Z,101864.13
2023-01-07T07:18:37.134Z,101849.41
2023-01-07T07:23:35.927Z,101837.28
2023-01-07T07:28:36.030Z,101833.84
2023-01-07T07:33:34.707Z,101843.41
2023-01-07T07:38:33.495Z,101846.97
2023-01-07T07:43:32.275Z,101859.06
2023-01-07T07:48:32.455Z,101857.34
2023-01-07T07:53:31.323Z,101856.41
2023-01-07T07:58:30.168Z,101850.38
2023-01-07T08:03:29.272Z,101858.16
2023-01-07T08:08:31.377Z,101869.44
2023-01-07T08:13:32.227Z,101858.09
2023-01-07T08:18:32.826Z,101864.16
2023-01-07T08:23:34.932Z,101865.03
2023-01-07T08:28:35.004Z,101867.59
2023-01-07T08:33:37.705Z,101867.53
2023-01-07T08:38:38.033Z,101882.25
2023-01-07T08:43:36.841Z,101875.91
2023-01-07T08:48:35.944Z,101888.19
2023-01-07T08:53:35.351Z,101888.13
2023-01-07T08:58:35.657Z,101893.38
2023-01-07T09:03:34.592Z,101894.03
2023-01-07T09:08:33.461Z,101900.63
2023-01-07T09:13:32.276Z,101893.69
2023-01-07T09:18:32.516Z,101881.00
2023-01-07T09:23:31.294Z,101876.03
2023-01-07T09:28:30.416Z,101877.59
2023-01-07T09:33:29.205Z,101879.59
2023-01-07T09:38:30.046Z,101873.69
2023-01-07T09:43:58.777Z,101867.78
2023-01-07T09:48:58.629Z,101852.78
2023-01-07T09:54:02.881Z,101840.00
2023-01-07T09:59:02.936Z,101850.44
2023-01-07T10:04:16.703Z,101841.28
2023-01-07T10:09:30.593Z,101829.53
2023-01-07T10:14:49.814Z,101813.09
2023-01-07T10:19:56.237Z,101812.53
2023-01-07T10:25:01.333Z,101806.28
2023-01-07T10:30:06.737Z,101799.78
2023-01-07T10:35:14.019Z,101799.41
2023-01-07T10:40:26.497Z,101783.25
2023-01-07T10:45:38.677Z,101785.63
2023-01-07T10:51:04.851Z,101770.34
2023-01-07T10:56:17.646Z,101776.97
2023-01-07T11:01:24.600Z,101767.38
2023-01-07T11:06:32.972Z,101752.16
2023-01-07T11:11:34.676Z,101748.09
2023-01-07T11:16:38.336Z,101729.97
2023-01-07T11:21:43.951Z,101726.84
2023-01-07T11:26:47.920Z,101717.81
2023-01-07T11:31:51.596Z,101711.91
2023-01-07T11:36:50.424Z,101712.97
2023-01-07T11:42:21.562Z,101702.00
2023-01-07T11:47:21.096Z,101706.59
2023-01-07T11:52:21.339Z,101702.00
2023-01-07T11:57:25.580Z,101704.59
2023-01-07T12:02:28.024Z,101700.75
2023-01-07T12:07:27.193Z,101699.44
2023-01-07T12:12:37.108Z,101689.63
2023-01-07T12:17:36.921Z,101696.66
2023-01-07T12:22:47.999Z,101682.28
2023-01-07T12:27:58.027Z,101672.72
2023-01-07T12:33:12.035Z,101668.47
2023-01-07T12:38:14.760Z,101667.66
2023-01-07T12:43:18.035Z,101661.94
2023-01-07T12:48:21.392Z,101665.22
2023-01-07T12:53:26.965Z,101659.97
2023-01-07T12:58:41.184Z,101655.34
2023-01-07T13:03:50.749Z,101656.19
2023-01-07T13:08:59.330Z,101654.06
2023-01-07T13:13:59.691Z,101652.03
2023-01-07T13:18:58.477Z,101648.31
2023-01-07T13:24:56.199Z,101655.19
2023-01-07T13:30:03.499Z,101642.88
2023-01-07T13:35:20.532Z,101648.75
2023-01-07T13:40:36.261Z,101635.78
2023-01-07T13:45:39.430Z,101636.75
2023-01-07T13:50:41.871Z,101633.75
2023-01-07T13:55:42.788Z,101637.16
2023-01-07T14:01:02.619Z,101637.41
2023-01-07T14:06:34.114Z,101638.38
2023-01-07T14:11:53.670Z,101634.22
2023-01-07T14:17:03.430Z,101632.41
2023-01-07T14:22:10.706Z,101636.94
2023-01-07T14:27:35.422Z,101650.47
2023-01-07T14:32:37.800Z,101641.38
2023-01-07T14:37:39.275Z,101632.06
2023-01-07T14:42:43.962Z,101626.75
2023-01-07T14:47:56.752Z,101630.91
2023-01-07T14:53:46.751Z,101625.38
2023-01-07T14:59:16.268Z,101632.69
2023-01-07T15:04:38.568Z,101638.25
2023-01-07T15:10:00.089Z,101634.19
2023-01-07T15:15:24.861Z,101636.97
2023-01-07T15:20:28.279Z,101641.53
2023-01-07T15:25:36.201Z,101642.34
2023-01-07T15:30:44.565Z,101647.47
2023-01-07T15:35:45.955Z,101647.91
2023-01-07T15:40:47.910Z,101646.59
2023-01-07T15:45:46.951Z,101643.53
2023-01-07T15:50:47.592Z,101642.19
2023-01-07T15:55:54.009Z,101657.66
2023-01-07T16:00:53.692Z,101663.88
2023-01-07T16:05:54.392Z,101664.63
2023-01-07T16:11:02.331Z,101670.63
2023-01-07T16:16:03.588Z,101665.94
2023-01-07T16:21:07.394Z,101672.78
2023-01-07T16:26:08.724Z,101665.34
2023-01-07T16:31:11.877Z,101658.03
2023-01-07T16:36:15.207Z,101661.09
2023-01-07T16:41:23.053Z,101662.72
2023-01-07T16:46:26.077Z,101666.66
2023-01-07T16:51:41.028Z,101676.75
2023-01-07T16:56:39.836Z,101678.91
2023-01-07T17:01:38.815Z,101675.69
2023-01-07T17:06:44.032Z,101689.19
2023-01-07T17:11:42.874Z,101693.94
2023-01-07T17:16:42.482Z,101710.91
2023-01-07T17:21:44.934Z,101707.75
2023-01-07T17:26:49.023Z,101701.91
2023-01-07T17:31:48.451Z,101704.06
2023-01-07T17:36:50.775Z,101707.31
2023-01-07T17:42:06.963Z,101713.25
2023-01-07T17:47:09.911Z,101704.81
2023-01-07T17:52:12.014Z,101705.06
2023-01-07T17:57:12.971Z,101707.84
2023-01-07T18:02:17.025Z,101706.22
2023-01-07T18:07:17.583Z,101708.09
2023-01-07T18:12:34.613Z,101716.03
2023-01-07T18:17:33.480Z,101723.25
2023-01-07T18:22:33.728Z,101718.16
2023-01-07T18:27:32.491Z,101722.59
2023-01-07T18:32:31.292Z,101720.13
2023-01-07T18:37:30.097Z,101722.88
2023-01-07T18:42:30.422Z,101724.72
2023-01-07T18:47:29.211Z,101721.38
2023-01-07T18:52:28.961Z,101725.03
2023-01-07T18:57:29.090Z,101717.38
2023-01-07T19:02:27.807Z,101715.78
2023-01-07T19:07:26.728Z,101709.03
2023-01-07T19:12:25.660Z,101715.41
2023-01-07T19:17:27.898Z,101714.81
2023-01-07T19:22:26.846Z,101716.78
2023-01-07T19:27:25.791Z,101717.84
2023-01-07T19:32:24.602Z,101718.84
2023-01-07T19:37:24.746Z,101716.78
2023-01-07T19:42:23.618Z,101707.69
2023-01-07T19:47:22.494Z,101711.31
2023-01-07T19:52:21.304Z,101718.53
2023-01-07T19:57:21.621Z,101709.88
2023-01-07T20:02:20.574Z,101705.63
2023-01-07T20:07:19.600Z,101710.53
2023-01-07T20:12:19.728Z,101702.31
2023-01-07T20:17:19.929Z,101702.41
2023-01-07T20:22:18.927Z,101698.09
2023-01-07T20:27:17.825Z,101692.88
2023-01-07T20:32:18.383Z,101689.47
2023-01-07T20:37:24.097Z,101693.25
2023-01-07T20:42:22.902Z,101696.13
2023-01-07T20:47:21.745Z,101694.34
2023-01-07T20:52:21.963Z,101690.84
2023-01-07T20:57:20.791Z,101698.69
2023-01-07T21:02:19.769Z,101696.09
2023-01-07T21:07:18.802Z,101697.25
2023-01-07T21:12:19.102Z,101698.94
2023-01-07T21:17:17.990Z,101693.66
2023-01-07T21:22:16.897Z,101701.47
2023-01-07T21:27:15.795Z,101703.25
2023-01-07T21:32:16.003Z,101701.50
2023-01-07T21:37:14.810Z,101693.69
2023-01-07T21:42:13.656Z,101694.66
2023-01-07T21:47:12.526Z,101687.72
2023-01-07T21:52:12.744Z,101690.56
2023-01-07T21:57:11.652Z,101684.50
2023-01-07T22:02:11.352Z,101680.13
2023-01-07T22:07:16.115Z,101677.53
2023-01-07T22:12:16.418Z,101677.53
2023-01-07T22:17:16.198Z,101681.03
2023-01-07T22:22:16.947Z,101673.19
2023-01-07T22:27:15.944Z,101662.78
2023-01-07T22:32:14.769Z,101662.84
2023-01-07T22:37:18.146Z,101657.63
2023-01-07T22:42:21.491Z,101655.09
2023-01-07T22:47:23.700Z,101651.59
2023-01-07T22:52:24.272Z,101649.84
2023-01-07T22:57:23.205Z,101649.03
2023-01-07T23:02:21.987Z,101637.69
2023-01-07T23:07:20.712Z,101632.47
2023-01-07T23:12:20.942Z,101634.19
2023-01-07T23:17:19.725Z,101642.91
2023-01-07T23:22:18.517Z,101630.75
2023-01-07T23:27:17.321Z,101634.25
2023-01-07T23:32:17.631Z,101640.41
2023-01-07T23:37:16.461Z,101635.28
2023-01-07T23:42:15.249Z,101629.28
2023-01-07T23:47:14.133Z,101632.88
2023-01-07T23:52:14.283Z,101626.84
2023-01-07T23:57:13.299Z,101631.28
